createdAt,value
2018-07-22T00:00:55.964Z,20.38
2018-07-22T00:03:25.296Z,20.40
2018-07-22T00:05:54.162Z,20.34
2018-07-22T00:08:23.426Z,19.94
2018-07-22T00:10:52.648Z,20.21
2018-07-22T00:13:21.606Z,20.17
2018-07-22T00:15:50.242Z,20.19
2018-07-22T00:18:18.910Z,20.20
2018-07-22T00:20:47.872Z,20.14
2018-07-22T00:23:17.234Z,20.15
2018-07-22T00:25:46.385Z,20.02
2018-07-22T00:28:15.337Z,19.91
2018-07-22T00:30:44.164Z,19.89
2018-07-22T00:33:12.865Z,19.90
2018-07-22T00:35:41.723Z,19.90
2018-07-22T00:38:10.561Z,19.89
2018-07-22T00:40:39.197Z,19.87
2018-07-22T00:43:08.172Z,19.83
2018-07-22T00:45:37.611Z,19.94
2018-07-22T00:48:06.273Z,20.04
2018-07-22T00:50:34.934Z,20.02
2018-07-22T00:53:03.640Z,20.07
2018-07-22T00:55:32.279Z,20.16
2018-07-22T00:58:00.979Z,20.04
2018-07-22T01:00:29.777Z,20.10
2018-07-22T01:02:58.458Z,20.07
2018-07-22T01:05:27.297Z,20.16
2018-07-22T01:07:56.159Z,20.25
2018-07-22T01:10:24.848Z,20.25
2018-07-22T01:12:53.569Z,20.20
2018-07-22T01:15:22.270Z,20.21
2018-07-22T01:17:51.098Z,20.18
2018-07-22T01:20:20.646Z,20.16
2018-07-22T01:22:49.310Z,20.16
2018-07-22T01:25:18.158Z,20.15
2018-07-22T01:27:46.821Z,20.19
2018-07-22T01:30:15.576Z,20.14
2018-07-22T01:32:44.988Z,20.10
2018-07-22T01:35:14.350Z,20.12
2018-07-22T01:37:43.410Z,20.10
2018-07-22T01:40:12.712Z,20.11
2018-07-22T01:42:42.008Z,20.12
2018-07-22T01:45:10.635Z,20.16
2018-07-22T01:47:39.301Z,20.16
2018-07-22T01:50:08.153Z,20.13
2018-07-22T01:52:36.886Z,20.11
2018-07-22T01:55:06.153Z,20.08
2018-07-22T01:57:34.789Z,20.07
2018-07-22T02:00:03.564Z,20.08
2018-07-22T02:02:32.156Z,20.09
2018-07-22T02:05:00.826Z,20.08
2018-07-22T02:07:29.809Z,20.09
2018-07-22T02:09:58.560Z,20.09
2018-07-22T02:12:27.190Z,20.12
2018-07-22T02:14:55.850Z,20.08
2018-07-22T02:17:24.505Z,20.09
2018-07-22T02:19:53.718Z,20.09
2018-07-22T02:22:22.403Z,20.10
2018-07-22T02:24:50.972Z,20.12
2018-07-22T02:27:19.800Z,20.13
2018-07-22T02:29:48.448Z,20.14
2018-07-22T02:32:17.118Z,20.15
2018-07-22T02:34:45.816Z,20.13
2018-07-22T02:37:14.539Z,20.12
2018-07-22T02:39:43.183Z,20.11
2018-07-22T02:42:11.798Z,20.09
2018-07-22T02:44:40.422Z,20.12
2018-07-22T02:47:09.134Z,20.14
2018-07-22T02:49:37.785Z,20.13
2018-07-22T02:52:06.714Z,20.15
2018-07-22T02:54:36.136Z,20.13
2018-07-22T02:57:05.090Z,20.12
2018-07-22T02:59:33.762Z,20.11
2018-07-22T03:02:02.476Z,20.08
2018-07-22T03:04:31.204Z,20.06
2018-07-22T03:06:59.785Z,20.05
2018-07-22T03:09:28.389Z,20.03
2018-07-22T03:11:57.009Z,20.01
2018-07-22T03:14:25.802Z,19.98
2018-07-22T03:16:55.452Z,19.97
2018-07-22T03:19:24.238Z,19.97
2018-07-22T03:21:53.567Z,19.96
2018-07-22T03:24:22.308Z,19.99
2018-07-22T03:26:51.000Z,19.97
2018-07-22T03:29:19.603Z,20.02
2018-07-22T03:31:48.300Z,20.04
2018-07-22T03:34:16.995Z,20.04
2018-07-22T03:36:45.904Z,20.05
2018-07-22T03:39:14.648Z,20.07
2018-07-22T03:41:43.585Z,20.07
2018-07-22T03:44:12.819Z,20.08
2018-07-22T03:46:42.005Z,20.06
2018-07-22T03:49:10.603Z,20.03
2018-07-22T03:51:39.544Z,20.06
2018-07-22T03:54:08.193Z,20.06
2018-07-22T03:56:36.837Z,20.06
2018-07-22T03:59:05.528Z,20.08
2018-07-22T04:01:34.169Z,20.09
2018-07-22T04:04:02.815Z,20.07
2018-07-22T04:06:31.528Z,20.10
2018-07-22T04:09:00.085Z,20.10
2018-07-22T04:11:28.746Z,20.11
2018-07-22T04:13:57.383Z,20.10
2018-07-22T04:16:26.026Z,20.11
2018-07-22T04:18:55.089Z,20.11
2018-07-22T04:21:24.795Z,20.10
2018-07-22T04:23:53.584Z,20.05
2018-07-22T04:26:22.657Z,20.04
2018-07-22T04:28:51.778Z,20.03
2018-07-22T04:31:20.653Z,20.03
2018-07-22T04:33:49.674Z,20.09
2018-07-22T04:36:18.905Z,20.12
2018-07-22T04:38:48.096Z,20.13
2018-07-22T04:41:17.426Z,20.12
2018-07-22T04:43:46.059Z,20.06
2018-07-22T04:46:14.688Z,20.03
2018-07-22T04:48:43.351Z,20.04
2018-07-22T04:51:12.039Z,20.01
2018-07-22T04:53:40.668Z,20.03
2018-07-22T04:56:09.611Z,20.03
2018-07-22T04:58:38.891Z,20.05
2018-07-22T05:01:07.545Z,20.02
2018-07-22T05:03:36.465Z,19.84
2018-07-22T05:06:05.706Z,20.17
2018-07-22T05:08:34.969Z,20.23
2018-07-22T05:11:03.739Z,20.13
2018-07-22T05:13:32.370Z,20.25
2018-07-22T05:16:01.628Z,20.27
2018-07-22T05:18:30.944Z,20.19
2018-07-22T05:20:59.599Z,20.26
2018-07-22T05:23:28.347Z,20.35
2018-07-22T05:25:57.615Z,20.38
2018-07-22T05:28:26.341Z,20.11
2018-07-22T05:30:55.004Z,20.12
2018-07-22T05:33:23.878Z,20.21
2018-07-22T05:35:52.631Z,20.19
2018-07-22T05:38:21.344Z,20.34
2018-07-22T05:40:50.685Z,20.37
2018-07-22T05:43:19.375Z,20.50
2018-07-22T05:45:48.790Z,20.46
2018-07-22T05:48:17.429Z,20.37
2018-07-22T05:50:46.087Z,20.26
2018-07-22T05:53:15.258Z,20.29
2018-07-22T05:55:43.882Z,20.26
2018-07-22T05:58:12.671Z,20.37
2018-07-22T06:00:41.304Z,20.44
2018-07-22T06:03:09.999Z,20.14
2018-07-22T06:05:38.679Z,20.33
2018-07-22T06:08:07.380Z,20.42
2018-07-22T06:10:36.113Z,20.76
2018-07-22T06:13:04.870Z,20.95
2018-07-22T06:15:33.554Z,21.12
2018-07-22T06:18:02.314Z,21.07
2018-07-22T06:20:31.038Z,21.30
2018-07-22T06:23:00.268Z,21.17
2018-07-22T06:25:28.990Z,21.35
2018-07-22T06:27:57.702Z,21.32
2018-07-22T06:30:26.426Z,21.39
2018-07-22T06:32:55.030Z,20.91
2018-07-22T06:35:24.355Z,20.86
2018-07-22T06:37:53.408Z,21.18
2018-07-22T06:40:22.087Z,21.31
2018-07-22T06:42:50.935Z,21.55
2018-07-22T06:45:19.596Z,21.39
2018-07-22T06:47:48.202Z,21.60
2018-07-22T06:50:16.876Z,21.93
2018-07-22T06:52:45.525Z,22.19
2018-07-22T06:55:14.194Z,21.78
2018-07-22T06:57:42.960Z,21.48
2018-07-22T07:00:11.643Z,21.68
2018-07-22T07:02:40.366Z,21.63
2018-07-22T07:05:09.188Z,21.73
2018-07-22T07:07:38.125Z,21.58
2018-07-22T07:10:07.539Z,21.71
2018-07-22T07:12:36.267Z,21.92
2018-07-22T07:15:06.337Z,21.66
2018-07-22T07:17:35.049Z,21.91
2018-07-22T07:20:03.791Z,21.62
2018-07-22T07:22:32.504Z,21.54
2018-07-22T07:25:01.153Z,21.86
2018-07-22T07:27:29.799Z,22.05
2018-07-22T07:29:58.520Z,22.13
2018-07-22T07:32:27.246Z,22.08
2018-07-22T07:34:55.952Z,22.47
2018-07-22T07:37:26.986Z,22.79
2018-07-22T07:39:55.658Z,22.97
2018-07-22T07:42:24.377Z,23.17
2018-07-22T07:44:56.154Z,23.02
2018-07-22T07:47:25.399Z,23.08
2018-07-22T07:49:54.517Z,23.17
2018-07-22T07:52:24.566Z,23.17
2018-07-22T07:54:53.871Z,23.18
2018-07-22T07:57:23.207Z,23.50
2018-07-22T07:59:54.212Z,23.55
2018-07-22T08:02:24.736Z,23.57
2018-07-22T08:04:53.716Z,23.73
2018-07-22T08:07:23.062Z,23.95
2018-07-22T08:09:53.144Z,24.17
2018-07-22T08:12:22.408Z,24.18
2018-07-22T08:14:51.165Z,23.75
2018-07-22T08:17:19.862Z,24.05
2018-07-22T08:19:48.784Z,23.90
2018-07-22T08:22:17.585Z,23.97
2018-07-22T08:24:46.295Z,23.61
2018-07-22T08:27:14.968Z,23.82
2018-07-22T08:29:44.882Z,23.94
2018-07-22T08:32:14.351Z,23.82
2018-07-22T08:34:43.012Z,23.80
2018-07-22T08:37:11.753Z,23.17
2018-07-22T08:39:40.438Z,23.31
2018-07-22T08:42:09.296Z,23.38
2018-07-22T08:44:38.533Z,23.51
2018-07-22T08:47:07.364Z,23.20
2018-07-22T08:49:37.974Z,23.41
2018-07-22T08:52:07.004Z,23.36
2018-07-22T08:54:36.487Z,23.11
2018-07-22T08:57:05.573Z,23.48
2018-07-22T08:59:34.360Z,23.51
2018-07-22T09:02:03.526Z,23.49
2018-07-22T09:04:33.248Z,23.76
2018-07-22T09:07:02.562Z,23.85
2018-07-22T09:09:31.781Z,23.99
2018-07-22T09:12:00.412Z,24.04
2018-07-22T09:14:29.156Z,24.06
2018-07-22T09:16:57.874Z,24.30
2018-07-22T09:19:26.517Z,24.42
2018-07-22T09:21:55.565Z,24.84
2018-07-22T09:24:24.284Z,24.97
2018-07-22T09:26:53.511Z,25.15
2018-07-22T09:29:22.429Z,25.32
2018-07-22T09:31:51.179Z,25.77
2018-07-22T09:34:19.899Z,25.82
2018-07-22T09:36:48.551Z,25.73
2018-07-22T09:39:17.227Z,25.84
2018-07-22T09:41:45.997Z,25.79
2018-07-22T09:44:15.262Z,25.59
2018-07-22T09:46:47.286Z,25.47
2018-07-22T09:49:16.045Z,25.54
2018-07-22T09:51:44.749Z,25.24
2018-07-22T09:54:14.591Z,25.45
2018-07-22T09:56:43.340Z,25.67
2018-07-22T09:59:12.714Z,24.81
2018-07-22T10:01:41.855Z,25.05
2018-07-22T10:04:10.826Z,25.24
2018-07-22T10:06:40.053Z,25.65
2018-07-22T10:09:10.609Z,25.87
2018-07-22T10:11:39.277Z,26.00
2018-07-22T10:14:08.044Z,26.05
2018-07-22T10:16:36.737Z,26.12
2018-07-22T10:19:05.555Z,26.25
2018-07-22T10:21:34.816Z,26.39
2018-07-22T10:24:03.899Z,26.49
2018-07-22T10:26:33.192Z,26.45
2018-07-22T10:29:02.294Z,26.37
2018-07-22T10:31:31.654Z,26.17
2018-07-22T10:34:00.665Z,26.15
2018-07-22T10:36:32.229Z,25.62
2018-07-22T10:39:01.324Z,24.88
2018-07-22T10:41:30.583Z,24.98
2018-07-22T10:44:03.500Z,25.20
2018-07-22T10:46:32.541Z,25.35
2018-07-22T10:49:01.503Z,25.56
2018-07-22T10:51:31.328Z,25.34
2018-07-22T10:54:02.796Z,25.83
2018-07-22T10:56:31.678Z,26.13
2018-07-22T10:59:00.611Z,26.45
2018-07-22T11:01:29.491Z,26.41
2018-07-22T11:03:58.539Z,26.35
2018-07-22T11:06:27.510Z,26.36
2018-07-22T11:08:56.775Z,26.46
2018-07-22T11:11:26.028Z,26.48
2018-07-22T11:13:54.911Z,26.19
2018-07-22T11:16:24.231Z,25.87
2018-07-22T11:18:52.967Z,26.18
2018-07-22T11:21:22.110Z,26.12
2018-07-22T11:23:51.107Z,26.03
2018-07-22T11:26:19.937Z,25.88
2018-07-22T11:28:48.706Z,25.54
2018-07-22T11:31:17.501Z,25.53
2018-07-22T11:33:48.430Z,25.33
2018-07-22T11:36:17.366Z,25.28
2018-07-22T11:38:46.197Z,25.25
2018-07-22T11:41:15.834Z,25.19
2018-07-22T11:43:45.213Z,25.21
2018-07-22T11:46:16.908Z,25.22
2018-07-22T11:48:45.754Z,24.96
2018-07-22T11:51:20.489Z,25.13
2018-07-22T11:53:49.184Z,25.41
2018-07-22T11:56:17.910Z,25.53
2018-07-22T11:58:46.648Z,25.64
2018-07-22T12:01:15.397Z,25.58
2018-07-22T12:03:44.497Z,25.54
2018-07-22T12:06:13.317Z,25.37
2018-07-22T12:08:42.273Z,24.78
2018-07-22T12:11:11.453Z,24.97
2018-07-22T12:13:40.234Z,25.06
2018-07-22T12:16:08.910Z,24.80
2018-07-22T12:18:37.628Z,24.99
2018-07-22T12:21:06.469Z,24.89
2018-07-22T12:23:41.763Z,25.23
2018-07-22T12:26:10.741Z,25.42
2018-07-22T12:28:39.519Z,25.13
2018-07-22T12:31:08.454Z,25.17
2018-07-22T12:33:37.404Z,25.40
2018-07-22T12:36:06.861Z,25.60
2018-07-22T12:38:36.047Z,25.36
2018-07-22T12:41:04.727Z,25.43
2018-07-22T12:43:33.508Z,25.86
2018-07-22T12:46:02.308Z,25.94
2018-07-22T12:48:31.012Z,26.34
2018-07-22T12:51:00.249Z,26.82
2018-07-22T12:53:29.506Z,27.22
2018-07-22T12:55:59.184Z,27.52
2018-07-22T12:58:28.224Z,27.91
2018-07-22T13:00:57.045Z,27.81
2018-07-22T13:03:27.211Z,27.73
2018-07-22T13:05:56.659Z,27.60
2018-07-22T13:08:25.526Z,27.56
2018-07-22T13:10:54.163Z,28.07
2018-07-22T13:13:22.929Z,27.97
2018-07-22T13:15:51.668Z,27.83
2018-07-22T13:18:20.461Z,27.26
2018-07-22T13:20:49.210Z,27.01
2018-07-22T13:26:47.583Z,26.64
2018-07-22T13:29:25.491Z,26.46
2018-07-22T13:39:43.900Z,27.92
2018-07-22T13:42:30.247Z,28.30
2018-07-22T13:45:14.135Z,28.34
2018-07-22T13:56:48.040Z,28.15
2018-07-22T14:09:26.331Z,26.73
2018-07-22T14:11:55.847Z,25.00
2018-07-22T14:14:24.595Z,24.98
2018-07-22T14:16:53.663Z,24.88
2018-07-22T14:19:22.981Z,24.82
2018-07-22T14:21:51.757Z,24.32
2018-07-22T14:24:21.348Z,24.35
2018-07-22T14:26:50.359Z,24.44
2018-07-22T14:29:19.483Z,24.42
2018-07-22T14:31:48.342Z,24.32
2018-07-22T14:34:17.130Z,24.01
2018-07-22T14:36:45.860Z,24.24
2018-07-22T14:39:15.241Z,23.77
2018-07-22T14:41:44.124Z,23.49
2018-07-22T14:44:12.910Z,23.94
2018-07-22T14:46:41.767Z,23.17
2018-07-22T14:49:10.526Z,23.50
2018-07-22T14:51:39.429Z,23.88
2018-07-22T14:54:08.943Z,23.97
2018-07-22T14:56:37.878Z,24.00
2018-07-22T14:59:06.776Z,23.95
2018-07-22T15:01:36.435Z,23.90
2018-07-22T15:04:12.659Z,24.06
2018-07-22T15:06:45.270Z,24.12
2018-07-22T15:09:29.932Z,24.15
2018-07-22T15:12:03.211Z,23.28
2018-07-22T15:14:44.352Z,23.26
2018-07-22T15:17:13.241Z,23.49
2018-07-22T15:19:42.488Z,23.66
2018-07-22T15:22:11.754Z,23.40
2018-07-22T15:24:40.604Z,23.55
2018-07-22T15:27:09.336Z,23.59
2018-07-22T15:29:38.158Z,23.71
2018-07-22T15:32:07.396Z,23.89
2018-07-22T15:34:37.101Z,23.94
2018-07-22T15:37:06.546Z,23.87
2018-07-22T15:39:35.318Z,23.94
2018-07-22T15:42:04.066Z,23.95
2018-07-22T15:44:32.865Z,24.05
2018-07-22T15:47:04.461Z,23.58
2018-07-22T15:49:33.681Z,23.65
2018-07-22T15:52:02.893Z,23.82
2018-07-22T15:54:31.952Z,23.46
2018-07-22T15:57:00.700Z,23.44
2018-07-22T15:59:29.501Z,23.46
2018-07-22T16:01:58.737Z,23.34
2018-07-22T16:04:28.095Z,23.17
2018-07-22T16:06:57.065Z,22.98
2018-07-22T16:09:25.840Z,23.05
2018-07-22T16:11:54.965Z,22.48
2018-07-22T16:14:23.800Z,22.52
2018-07-22T16:16:52.859Z,22.63
2018-07-22T16:19:22.617Z,22.64
2018-07-22T16:21:52.844Z,22.25
2018-07-22T16:24:21.806Z,22.36
2018-07-22T16:26:50.616Z,22.40
2018-07-22T16:29:19.502Z,22.51
2018-07-22T16:31:48.725Z,22.60
2018-07-22T16:34:17.775Z,22.53
2018-07-22T16:36:47.312Z,22.53
2018-07-22T16:39:16.849Z,22.22
2018-07-22T16:41:45.590Z,22.33
2018-07-22T16:44:14.427Z,22.04
2018-07-22T16:46:43.335Z,21.80
2018-07-22T16:49:12.063Z,22.04
2018-07-22T16:51:40.741Z,22.16
2018-07-22T16:54:10.788Z,22.03
2018-07-22T16:56:40.260Z,22.12
2018-07-22T16:59:18.218Z,22.32
2018-07-22T17:01:47.742Z,22.37
2018-07-22T17:04:16.499Z,22.20
2018-07-22T17:06:53.189Z,22.07
2018-07-22T17:09:22.696Z,22.13
2018-07-22T17:11:53.472Z,21.89
2018-07-22T17:14:22.441Z,21.97
2018-07-22T17:16:56.710Z,22.05
2018-07-22T17:19:54.588Z,21.79
2018-07-22T17:32:55.314Z,21.64
2018-07-22T17:50:29.359Z,22.02
2018-07-22T17:53:11.146Z,21.77
2018-07-22T17:56:02.536Z,21.63
2018-07-22T17:58:56.826Z,21.78
2018-07-22T18:01:47.813Z,21.57
2018-07-22T18:09:27.757Z,21.57
2018-07-22T18:16:59.248Z,21.45
2018-07-22T18:23:54.824Z,21.48
2018-07-22T18:26:23.957Z,21.55
2018-07-22T18:28:58.516Z,21.46
2018-07-22T18:31:29.419Z,21.31
2018-07-22T18:38:52.306Z,21.31
2018-07-22T18:41:25.976Z,21.28
2018-07-22T18:46:46.049Z,21.16
2018-07-22T18:49:27.132Z,21.21
2018-07-22T18:51:56.116Z,21.38
2018-07-22T18:54:25.707Z,21.46
2018-07-22T18:56:54.937Z,21.42
2018-07-22T19:02:29.824Z,21.37
2018-07-22T19:08:08.964Z,21.31
2018-07-22T19:10:43.260Z,21.30
2018-07-22T19:13:20.351Z,21.27
2018-07-22T19:15:50.691Z,21.27
2018-07-22T19:18:51.487Z,21.13
2018-07-22T19:21:20.746Z,20.73
2018-07-22T19:24:07.279Z,20.82
2018-07-22T19:26:39.423Z,20.47
2018-07-22T19:29:08.522Z,20.72
2018-07-22T19:31:45.956Z,20.93
2018-07-22T19:34:17.428Z,20.85
2018-07-22T19:36:47.172Z,20.51
2018-07-22T19:42:16.484Z,20.86
2018-07-22T19:44:49.012Z,20.95
2018-07-22T19:47:46.780Z,21.03
2018-07-22T19:50:22.213Z,20.91
2018-07-22T19:52:51.948Z,20.96
2018-07-22T19:55:20.936Z,20.99
2018-07-22T19:57:50.483Z,20.99
2018-07-22T20:00:19.613Z,21.05
2018-07-22T20:02:48.608Z,21.07
2018-07-22T20:05:17.613Z,21.14
2018-07-22T20:08:58.338Z,21.12
2018-07-22T20:55:27.287Z,19.93
2018-07-22T20:57:57.419Z,19.98
2018-07-22T21:00:34.608Z,20.05
2018-07-22T21:03:35.557Z,20.05
2018-07-22T21:06:05.055Z,19.97
2018-07-22T21:08:40.008Z,20.01
2018-07-22T21:20:32.911Z,20.03
2018-07-22T21:25:41.233Z,20.16
2018-07-22T21:28:38.440Z,20.22
2018-07-22T21:34:06.899Z,20.20
2018-07-22T21:42:24.499Z,20.11
2018-07-22T22:29:51.773Z,19.66
2018-07-22T22:32:23.967Z,19.70
2018-07-22T22:34:57.846Z,19.81
2018-07-22T22:37:31.000Z,19.91
2018-07-22T22:39:59.814Z,20.02
2018-07-22T22:42:28.512Z,20.11
2018-07-22T22:45:02.698Z,20.17
2018-07-22T22:47:37.130Z,20.22
2018-07-22T22:50:09.791Z,20.26
2018-07-22T22:52:44.067Z,20.25
2018-07-22T22:55:16.125Z,20.24
2018-07-22T22:57:58.047Z,20.24
2018-07-22T23:00:29.448Z,20.06
2018-07-22T23:02:59.232Z,20.10
2018-07-22T23:05:28.014Z,20.10
2018-07-22T23:07:56.851Z,20.11
2018-07-22T23:10:25.774Z,20.03
2018-07-22T23:12:54.462Z,20.04
2018-07-22T23:15:23.048Z,20.03
2018-07-22T23:17:51.758Z,20.07
2018-07-22T23:20:20.402Z,20.07
2018-07-22T23:22:49.085Z,20.03
2018-07-22T23:25:17.693Z,20.06
2018-07-22T23:27:46.303Z,20.04
2018-07-22T23:30:14.875Z,20.03
2018-07-22T23:32:43.466Z,20.03
2018-07-22T23:35:12.098Z,20.02
2018-07-22T23:37:40.707Z,19.99
2018-07-22T23:40:10.169Z,19.90
2018-07-22T23:42:38.775Z,19.83
2018-07-22T23:45:07.373Z,19.86
2018-07-22T23:47:37.549Z,19.83
2018-07-22T23:50:06.898Z,19.91
2018-07-22T23:52:35.888Z,19.90
2018-07-22T23:55:04.568Z,19.96
2018-07-22T23:57:33.271Z,19.95
